sensor_id;sensor_type;location;lat;lon;timestamp;temperature;humidity
31967;DHT22;18496;52.042;6.812;2022-09-09T00:00:37;19.90;99.90
31967;DHT22;18496;52.042;6.812;2022-09-09T00:03:27;19.90;99.90
31967;DHT22;18496;52.042;6.812;2022-09-09T00:05:28;19.90;99.90
31967;DHT22;18496;52.042;6.812;2022-09-09T00:08:02;20.00;99.90
31967;DHT22;18496;52.042;6.812;2022-09-09T00:10:16;19.90;99.90
31967;DHT22;18496;52.042;6.812;2022-09-09T00:12:53;19.80;99.90
31967;DHT22;18496;52.042;6.812;2022-09-09T00:15:13;19.80;99.90
31967;DHT22;18496;52.042;6.812;2022-09-09T00:17:36;19.70;99.90
31967;DHT22;18496;52.042;6.812;2022-09-09T00:21:57;19.70;99.90
31967;DHT22;18496;52.042;6.812;2022-09-09T00:24:24;19.70;99.90
31967;DHT22;18496;52.042;6.812;2022-09-09T00:26:40;19.60;99.90
31967;DHT22;18496;52.042;6.812;2022-09-09T00:31:11;19.60;99.90
31967;DHT22;18496;52.042;6.812;2022-09-09T00:33:20;19.60;99.90
31967;DHT22;18496;52.042;6.812;2022-09-09T00:35:29;19.60;99.90
31967;DHT22;18496;52.042;6.812;2022-09-09T00:37:34;19.50;99.90
31967;DHT22;18496;52.042;6.812;2022-09-09T00:39:44;19.60;99.90
31967;DHT22;18496;52.042;6.812;2022-09-09T00:42:08;19.70;99.90
31967;DHT22;18496;52.042;6.812;2022-09-09T00:44:30;19.70;99.90
31967;DHT22;18496;52.042;6.812;2022-09-09T00:46:47;19.80;99.90
31967;DHT22;18496;52.042;6.812;2022-09-09T00:52:03;19.70;99.90
31967;DHT22;18496;52.042;6.812;2022-09-09T00:54:33;19.70;99.90
31967;DHT22;18496;52.042;6.812;2022-09-09T00:56:47;19.80;99.90
31967;DHT22;18496;52.042;6.812;2022-09-09T00:59:12;19.70;99.90
31967;DHT22;18496;52.042;6.812;2022-09-09T01:01:18;19.70;99.90
31967;DHT22;18496;52.042;6.812;2022-09-09T01:06:02;19.70;99.90
31967;DHT22;18496;52.042;6.812;2022-09-09T01:08:22;19.70;99.90
31967;DHT22;18496;52.042;6.812;2022-09-09T01:10:50;19.70;99.90
31967;DHT22;18496;52.042;6.812;2022-09-09T01:12:56;19.70;99.90
31967;DHT22;18496;52.042;6.812;2022-09-09T01:15:10;19.60;99.90
31967;DHT22;18496;52.042;6.812;2022-09-09T01:17:32;19.60;99.90
31967;DHT22;18496;52.042;6.812;2022-09-09T01:20:12;19.60;99.90
31967;DHT22;18496;52.042;6.812;2022-09-09T01:27:35;19.40;99.90
31967;DHT22;18496;52.042;6.812;2022-09-09T01:29:40;19.30;99.90
31967;DHT22;18496;52.042;6.812;2022-09-09T01:31:59;19.20;99.90
31967;DHT22;18496;52.042;6.812;2022-09-09T01:34:13;19.20;99.90
31967;DHT22;18496;52.042;6.812;2022-09-09T01:38:54;19.20;99.90
31967;DHT22;18496;52.042;6.812;2022-09-09T01:40:58;19.20;99.90
31967;DHT22;18496;52.042;6.812;2022-09-09T01:43:10;19.20;99.90
31967;DHT22;18496;52.042;6.812;2022-09-09T01:45:14;19.20;99.90
31967;DHT22;18496;52.042;6.812;2022-09-09T01:47:18;19.20;99.90
31967;DHT22;18496;52.042;6.812;2022-09-09T01:49:42;19.10;99.90
31967;DHT22;18496;52.042;6.812;2022-09-09T01:51:56;19.10;99.90
31967;DHT22;18496;52.042;6.812;2022-09-09T01:54:06;19.00;99.90
31967;DHT22;18496;52.042;6.812;2022-09-09T01:58:44;19.00;99.90
31967;DHT22;18496;52.042;6.812;2022-09-09T02:01:00;18.80;99.90
31967;DHT22;18496;52.042;6.812;2022-09-09T02:03:20;18.80;99.90
31967;DHT22;18496;52.042;6.812;2022-09-09T02:05:45;18.80;99.90
31967;DHT22;18496;52.042;6.812;2022-09-09T02:08:10;18.80;99.90
31967;DHT22;18496;52.042;6.812;2022-09-09T02:12:55;18.70;99.90
31967;DHT22;18496;52.042;6.812;2022-09-09T02:15:05;18.70;99.90
31967;DHT22;18496;52.042;6.812;2022-09-09T02:17:26;18.60;99.90
31967;DHT22;18496;52.042;6.812;2022-09-09T02:19:50;18.60;99.90
31967;DHT22;18496;52.042;6.812;2022-09-09T02:22:03;18.60;99.90
31967;DHT22;18496;52.042;6.812;2022-09-09T02:24:08;18.60;99.90
31967;DHT22;18496;52.042;6.812;2022-09-09T02:26:19;18.70;99.90
31967;DHT22;18496;52.042;6.812;2022-09-09T02:28:31;18.70;99.90
31967;DHT22;18496;52.042;6.812;2022-09-09T02:30:38;18.70;99.90
31967;DHT22;18496;52.042;6.812;2022-09-09T02:32:44;18.70;99.90
31967;DHT22;18496;52.042;6.812;2022-09-09T02:34:56;18.80;99.90
31967;DHT22;18496;52.042;6.812;2022-09-09T02:37:03;18.80;99.90
31967;DHT22;18496;52.042;6.812;2022-09-09T02:39:10;18.80;99.90
31967;DHT22;18496;52.042;6.812;2022-09-09T02:41:14;18.80;99.90
31967;DHT22;18496;52.042;6.812;2022-09-09T02:43:18;18.90;99.90
31967;DHT22;18496;52.042;6.812;2022-09-09T02:45:30;18.80;99.90
31967;DHT22;18496;52.042;6.812;2022-09-09T02:47:41;18.90;99.90
31967;DHT22;18496;52.042;6.812;2022-09-09T02:54:38;18.80;99.90
31967;DHT22;18496;52.042;6.812;2022-09-09T02:56:52;18.80;99.90
31967;DHT22;18496;52.042;6.812;2022-09-09T02:59:04;18.70;99.90
31967;DHT22;18496;52.042;6.812;2022-09-09T03:01:08;18.70;99.90
31967;DHT22;18496;52.042;6.812;2022-09-09T03:03:12;18.60;99.90
31967;DHT22;18496;52.042;6.812;2022-09-09T03:05:16;18.60;99.90
31967;DHT22;18496;52.042;6.812;2022-09-09T03:07:20;18.50;99.90
31967;DHT22;18496;52.042;6.812;2022-09-09T03:09:26;18.40;99.90
31967;DHT22;18496;52.042;6.812;2022-09-09T03:11:33;18.40;99.90
31967;DHT22;18496;52.042;6.812;2022-09-09T03:13:37;18.40;99.90
31967;DHT22;18496;52.042;6.812;2022-09-09T03:15:42;18.40;99.90
31967;DHT22;18496;52.042;6.812;2022-09-09T03:17:50;18.40;99.90
31967;DHT22;18496;52.042;6.812;2022-09-09T03:19:57;18.40;99.90
31967;DHT22;18496;52.042;6.812;2022-09-09T03:22:02;18.40;99.90
31967;DHT22;18496;52.042;6.812;2022-09-09T03:24:09;18.40;99.90
31967;DHT22;18496;52.042;6.812;2022-09-09T03:26:12;18.40;99.90
31967;DHT22;18496;52.042;6.812;2022-09-09T03:28:21;18.30;99.90
31967;DHT22;18496;52.042;6.812;2022-09-09T03:30:27;18.40;99.90
31967;DHT22;18496;52.042;6.812;2022-09-09T03:32:33;18.40;99.90
31967;DHT22;18496;52.042;6.812;2022-09-09T03:34:36;18.40;99.90
31967;DHT22;18496;52.042;6.812;2022-09-09T03:36:44;18.50;99.90
31967;DHT22;18496;52.042;6.812;2022-09-09T03:38:48;18.40;99.90
31967;DHT22;18496;52.042;6.812;2022-09-09T03:40:54;18.30;99.90
31967;DHT22;18496;52.042;6.812;2022-09-09T03:43:01;18.30;99.90
31967;DHT22;18496;52.042;6.812;2022-09-09T03:45:07;18.20;99.90
31967;DHT22;18496;52.042;6.812;2022-09-09T03:47:13;18.20;99.90
31967;DHT22;18496;52.042;6.812;2022-09-09T03:49:17;18.20;99.90
31967;DHT22;18496;52.042;6.812;2022-09-09T03:51:21;18.20;99.90
31967;DHT22;18496;52.042;6.812;2022-09-09T03:53:26;18.10;99.90
31967;DHT22;18496;52.042;6.812;2022-09-09T03:55:30;18.10;99.90
31967;DHT22;18496;52.042;6.812;2022-09-09T03:57:34;18.10;99.90
31967;DHT22;18496;52.042;6.812;2022-09-09T03:59:39;18.10;99.90
31967;DHT22;18496;52.042;6.812;2022-09-09T04:01:42;18.10;99.90
31967;DHT22;18496;52.042;6.812;2022-09-09T04:03:46;18.10;99.90
31967;DHT22;18496;52.042;6.812;2022-09-09T04:05:51;18.10;99.90
31967;DHT22;18496;52.042;6.812;2022-09-09T04:07:55;18.10;99.90
31967;DHT22;18496;52.042;6.812;2022-09-09T04:09:59;18.10;99.90
31967;DHT22;18496;52.042;6.812;2022-09-09T04:12:03;18.10;99.90
31967;DHT22;18496;52.042;6.812;2022-09-09T04:14:08;18.10;99.90
31967;DHT22;18496;52.042;6.812;2022-09-09T04:16:12;18.10;99.90
31967;DHT22;18496;52.042;6.812;2022-09-09T04:18:17;18.20;99.90
31967;DHT22;18496;52.042;6.812;2022-09-09T04:20:21;18.20;99.90
31967;DHT22;18496;52.042;6.812;2022-09-09T04:22:25;18.10;99.90
31967;DHT22;18496;52.042;6.812;2022-09-09T04:24:31;18.10;99.90
31967;DHT22;18496;52.042;6.812;2022-09-09T04:26:37;18.00;99.90
31967;DHT22;18496;52.042;6.812;2022-09-09T04:28:41;17.90;99.90
31967;DHT22;18496;52.042;6.812;2022-09-09T04:30:50;17.90;99.90
31967;DHT22;18496;52.042;6.812;2022-09-09T04:32:54;17.90;99.90
31967;DHT22;18496;52.042;6.812;2022-09-09T04:34:57;18.00;99.90
31967;DHT22;18496;52.042;6.812;2022-09-09T04:37:01;18.00;99.90
31967;DHT22;18496;52.042;6.812;2022-09-09T04:39:06;18.00;99.90
31967;DHT22;18496;52.042;6.812;2022-09-09T04:41:10;18.00;99.90
31967;DHT22;18496;52.042;6.812;2022-09-09T04:43:16;18.00;99.90
31967;DHT22;18496;52.042;6.812;2022-09-09T04:45:21;18.00;99.90
31967;DHT22;18496;52.042;6.812;2022-09-09T04:47:24;18.00;99.90
31967;DHT22;18496;52.042;6.812;2022-09-09T04:49:28;17.90;99.90
31967;DHT22;18496;52.042;6.812;2022-09-09T04:51:35;17.90;99.90
31967;DHT22;18496;52.042;6.812;2022-09-09T04:53:39;17.90;99.90
31967;DHT22;18496;52.042;6.812;2022-09-09T04:55:43;18.00;99.90
31967;DHT22;18496;52.042;6.812;2022-09-09T04:57:47;17.90;99.90
31967;DHT22;18496;52.042;6.812;2022-09-09T04:59:51;17.90;99.90
31967;DHT22;18496;52.042;6.812;2022-09-09T05:01:55;17.90;99.90
31967;DHT22;18496;52.042;6.812;2022-09-09T05:03:59;17.90;99.90
31967;DHT22;18496;52.042;6.812;2022-09-09T05:06:05;18.00;99.90
31967;DHT22;18496;52.042;6.812;2022-09-09T05:08:09;18.00;99.90
31967;DHT22;18496;52.042;6.812;2022-09-09T05:10:13;18.00;99.90
31967;DHT22;18496;52.042;6.812;2022-09-09T05:12:17;18.00;99.90
31967;DHT22;18496;52.042;6.812;2022-09-09T05:14:27;18.00;99.90
31967;DHT22;18496;52.042;6.812;2022-09-09T05:16:31;18.10;99.90
31967;DHT22;18496;52.042;6.812;2022-09-09T05:18:35;18.10;99.90
31967;DHT22;18496;52.042;6.812;2022-09-09T05:20:39;18.10;99.90
31967;DHT22;18496;52.042;6.812;2022-09-09T05:22:42;18.10;99.90
31967;DHT22;18496;52.042;6.812;2022-09-09T05:24:46;18.10;99.90
31967;DHT22;18496;52.042;6.812;2022-09-09T05:26:50;18.10;99.90
31967;DHT22;18496;52.042;6.812;2022-09-09T05:28:54;18.10;99.90
31967;DHT22;18496;52.042;6.812;2022-09-09T05:30:59;18.20;99.90
31967;DHT22;18496;52.042;6.812;2022-09-09T05:33:09;18.20;99.90
31967;DHT22;18496;52.042;6.812;2022-09-09T05:35:13;18.20;99.90
31967;DHT22;18496;52.042;6.812;2022-09-09T05:37:17;18.20;99.90
31967;DHT22;18496;52.042;6.812;2022-09-09T05:39:21;18.20;99.90
31967;DHT22;18496;52.042;6.812;2022-09-09T05:41:25;18.20;99.90
31967;DHT22;18496;52.042;6.812;2022-09-09T05:43:32;18.20;99.90
31967;DHT22;18496;52.042;6.812;2022-09-09T05:45:36;18.20;99.90
31967;DHT22;18496;52.042;6.812;2022-09-09T05:47:40;18.20;99.90
31967;DHT22;18496;52.042;6.812;2022-09-09T05:49:48;18.20;99.90
31967;DHT22;18496;52.042;6.812;2022-09-09T05:51:53;18.10;99.90
31967;DHT22;18496;52.042;6.812;2022-09-09T05:53:58;18.10;99.90
31967;DHT22;18496;52.042;6.812;2022-09-09T05:56:05;18.10;99.90
31967;DHT22;18496;52.042;6.812;2022-09-09T05:58:11;18.10;99.90
31967;DHT22;18496;52.042;6.812;2022-09-09T06:00:15;18.10;99.90
31967;DHT22;18496;52.042;6.812;2022-09-09T06:02:22;18.10;99.90
31967;DHT22;18496;52.042;6.812;2022-09-09T06:04:27;18.00;99.90
31967;DHT22;18496;52.042;6.812;2022-09-09T06:06:32;18.10;99.90
31967;DHT22;18496;52.042;6.812;2022-09-09T06:08:42;18.10;99.90
31967;DHT22;18496;52.042;6.812;2022-09-09T06:10:47;18.10;99.90
31967;DHT22;18496;52.042;6.812;2022-09-09T06:12:52;18.10;99.90
31967;DHT22;18496;52.042;6.812;2022-09-09T06:14:56;18.10;99.90
31967;DHT22;18496;52.042;6.812;2022-09-09T06:17:00;18.10;99.90
31967;DHT22;18496;52.042;6.812;2022-09-09T06:19:07;18.10;99.90
31967;DHT22;18496;52.042;6.812;2022-09-09T06:21:17;18.10;99.90
31967;DHT22;18496;52.042;6.812;2022-09-09T06:23:21;18.10;99.90
31967;DHT22;18496;52.042;6.812;2022-09-09T06:25:25;18.10;99.90
31967;DHT22;18496;52.042;6.812;2022-09-09T06:27:29;18.10;99.90
31967;DHT22;18496;52.042;6.812;2022-09-09T06:29:32;18.10;99.90
31967;DHT22;18496;52.042;6.812;2022-09-09T06:31:36;18.00;99.90
31967;DHT22;18496;52.042;6.812;2022-09-09T06:34:01;18.00;99.90
31967;DHT22;18496;52.042;6.812;2022-09-09T06:36:07;18.10;99.90
31967;DHT22;18496;52.042;6.812;2022-09-09T06:38:13;18.10;99.90
31967;DHT22;18496;52.042;6.812;2022-09-09T06:40:17;18.10;99.90
31967;DHT22;18496;52.042;6.812;2022-09-09T06:42:20;18.20;99.90
31967;DHT22;18496;52.042;6.812;2022-09-09T06:44:34;18.20;99.90
31967;DHT22;18496;52.042;6.812;2022-09-09T06:46:38;18.20;99.90
31967;DHT22;18496;52.042;6.812;2022-09-09T06:48:43;18.30;99.90
31967;DHT22;18496;52.042;6.812;2022-09-09T06:50:49;18.30;99.90
31967;DHT22;18496;52.042;6.812;2022-09-09T06:52:53;18.30;99.90
31967;DHT22;18496;52.042;6.812;2022-09-09T06:54:57;18.40;99.90
31967;DHT22;18496;52.042;6.812;2022-09-09T06:57:02;18.40;99.90
31967;DHT22;18496;52.042;6.812;2022-09-09T06:59:07;18.40;99.90
31967;DHT22;18496;52.042;6.812;2022-09-09T07:01:15;18.40;99.90
31967;DHT22;18496;52.042;6.812;2022-09-09T07:03:19;18.50;99.90
31967;DHT22;18496;52.042;6.812;2022-09-09T07:05:23;18.50;99.90
31967;DHT22;18496;52.042;6.812;2022-09-09T07:07:28;18.50;99.90
31967;DHT22;18496;52.042;6.812;2022-09-09T07:09:33;18.50;99.90
31967;DHT22;18496;52.042;6.812;2022-09-09T07:11:39;18.60;99.90
31967;DHT22;18496;52.042;6.812;2022-09-09T07:13:43;18.60;99.90
31967;DHT22;18496;52.042;6.812;2022-09-09T07:15:47;18.60;99.90
31967;DHT22;18496;52.042;6.812;2022-09-09T07:17:51;18.60;99.90
31967;DHT22;18496;52.042;6.812;2022-09-09T07:19:55;18.60;99.90
31967;DHT22;18496;52.042;6.812;2022-09-09T07:22:00;18.70;99.90
31967;DHT22;18496;52.042;6.812;2022-09-09T07:24:06;18.70;99.90
31967;DHT22;18496;52.042;6.812;2022-09-09T07:26:16;18.70;99.90
31967;DHT22;18496;52.042;6.812;2022-09-09T07:28:20;18.70;99.90
31967;DHT22;18496;52.042;6.812;2022-09-09T07:30:24;18.70;99.90
31967;DHT22;18496;52.042;6.812;2022-09-09T07:32:28;18.60;99.90
31967;DHT22;18496;52.042;6.812;2022-09-09T07:34:33;18.60;99.90
31967;DHT22;18496;52.042;6.812;2022-09-09T07:36:39;18.70;99.90
31967;DHT22;18496;52.042;6.812;2022-09-09T07:38:46;18.70;99.90
31967;DHT22;18496;52.042;6.812;2022-09-09T07:40:51;18.70;99.90
31967;DHT22;18496;52.042;6.812;2022-09-09T07:42:54;18.70;99.90
31967;DHT22;18496;52.042;6.812;2022-09-09T07:44:58;18.70;99.90
31967;DHT22;18496;52.042;6.812;2022-09-09T07:47:03;18.80;99.90
31967;DHT22;18496;52.042;6.812;2022-09-09T07:49:12;18.80;99.90
31967;DHT22;18496;52.042;6.812;2022-09-09T07:51:19;18.90;99.90
31967;DHT22;18496;52.042;6.812;2022-09-09T07:53:26;18.90;99.90
31967;DHT22;18496;52.042;6.812;2022-09-09T07:55:30;18.90;99.90
31967;DHT22;18496;52.042;6.812;2022-09-09T07:57:34;19.00;99.90
31967;DHT22;18496;52.042;6.812;2022-09-09T07:59:39;19.00;99.90
31967;DHT22;18496;52.042;6.812;2022-09-09T08:01:48;19.10;99.90
31967;DHT22;18496;52.042;6.812;2022-09-09T08:04:00;19.10;99.90
31967;DHT22;18496;52.042;6.812;2022-09-09T08:06:08;19.10;99.90
31967;DHT22;18496;52.042;6.812;2022-09-09T08:08:12;19.10;99.90
31967;DHT22;18496;52.042;6.812;2022-09-09T08:10:16;19.00;99.90
31967;DHT22;18496;52.042;6.812;2022-09-09T08:12:22;19.00;99.90
31967;DHT22;18496;52.042;6.812;2022-09-09T08:14:28;18.90;99.90
31967;DHT22;18496;52.042;6.812;2022-09-09T08:16:36;18.90;99.90
31967;DHT22;18496;52.042;6.812;2022-09-09T08:18:41;18.90;99.90
31967;DHT22;18496;52.042;6.812;2022-09-09T08:20:45;18.90;99.90
31967;DHT22;18496;52.042;6.812;2022-09-09T08:22:49;18.90;99.90
31967;DHT22;18496;52.042;6.812;2022-09-09T08:24:53;18.90;99.90
31967;DHT22;18496;52.042;6.812;2022-09-09T08:26:57;18.90;99.90
31967;DHT22;18496;52.042;6.812;2022-09-09T08:29:03;19.00;99.90
31967;DHT22;18496;52.042;6.812;2022-09-09T08:31:18;19.00;99.90
31967;DHT22;18496;52.042;6.812;2022-09-09T08:33:22;18.90;99.90
31967;DHT22;18496;52.042;6.812;2022-09-09T08:35:25;18.90;99.90
31967;DHT22;18496;52.042;6.812;2022-09-09T08:37:29;18.90;99.90
31967;DHT22;18496;52.042;6.812;2022-09-09T08:39:33;19.00;99.90
31967;DHT22;18496;52.042;6.812;2022-09-09T08:44:10;19.10;99.90
31967;DHT22;18496;52.042;6.812;2022-09-09T08:46:34;19.10;99.90
31967;DHT22;18496;52.042;6.812;2022-09-09T08:49:24;19.10;99.90
31967;DHT22;18496;52.042;6.812;2022-09-09T08:51:27;19.10;99.90
31967;DHT22;18496;52.042;6.812;2022-09-09T08:53:43;19.10;99.90
31967;DHT22;18496;52.042;6.812;2022-09-09T08:55:51;19.10;99.90
31967;DHT22;18496;52.042;6.812;2022-09-09T08:58:23;19.10;99.90
31967;DHT22;18496;52.042;6.812;2022-09-09T09:00:44;19.20;99.90
31967;DHT22;18496;52.042;6.812;2022-09-09T09:03:06;19.30;99.90
31967;DHT22;18496;52.042;6.812;2022-09-09T09:12:44;19.60;99.90
31967;DHT22;18496;52.042;6.812;2022-09-09T09:14:52;19.70;99.90
31967;DHT22;18496;52.042;6.812;2022-09-09T09:17:04;19.80;99.90
31967;DHT22;18496;52.042;6.812;2022-09-09T09:19:13;19.90;99.90
31967;DHT22;18496;52.042;6.812;2022-09-09T09:23:39;20.00;99.90
31967;DHT22;18496;52.042;6.812;2022-09-09T09:25:47;20.10;99.90
31967;DHT22;18496;52.042;6.812;2022-09-09T09:28:00;20.10;99.90
31967;DHT22;18496;52.042;6.812;2022-09-09T09:30:19;20.10;99.90
31967;DHT22;18496;52.042;6.812;2022-09-09T09:32:24;20.10;99.90
31967;DHT22;18496;52.042;6.812;2022-09-09T09:34:29;20.20;99.80
31967;DHT22;18496;52.042;6.812;2022-09-09T09:36:44;20.20;99.60
31967;DHT22;18496;52.042;6.812;2022-09-09T09:38:57;20.20;99.00
31967;DHT22;18496;52.042;6.812;2022-09-09T09:41:04;20.30;99.70
31967;DHT22;18496;52.042;6.812;2022-09-09T09:43:20;20.40;99.40
31967;DHT22;18496;52.042;6.812;2022-09-09T09:47:32;20.40;98.50
31967;DHT22;18496;52.042;6.812;2022-09-09T09:49:53;20.40;99.00
31967;DHT22;18496;52.042;6.812;2022-09-09T09:52:03;20.40;99.20
31967;DHT22;18496;52.042;6.812;2022-09-09T09:54:17;20.40;99.30
31967;DHT22;18496;52.042;6.812;2022-09-09T09:56:28;20.40;99.00
31967;DHT22;18496;52.042;6.812;2022-09-09T10:00:50;20.30;99.10
31967;DHT22;18496;52.042;6.812;2022-09-09T10:02:55;20.20;98.90
31967;DHT22;18496;52.042;6.812;2022-09-09T10:05:13;20.20;98.70
31967;DHT22;18496;52.042;6.812;2022-09-09T10:07:22;20.10;98.30
31967;DHT22;18496;52.042;6.812;2022-09-09T10:09:29;20.10;98.60
31967;DHT22;18496;52.042;6.812;2022-09-09T10:11:55;20.10;98.70
31967;DHT22;18496;52.042;6.812;2022-09-09T10:14:20;20.10;98.20
31967;DHT22;18496;52.042;6.812;2022-09-09T10:16:26;20.10;98.20
31967;DHT22;18496;52.042;6.812;2022-09-09T10:19:00;20.20;97.90
31967;DHT22;18496;52.042;6.812;2022-09-09T10:25:49;20.30;97.80
31967;DHT22;18496;52.042;6.812;2022-09-09T10:30:19;20.60;97.70
31967;DHT22;18496;52.042;6.812;2022-09-09T10:36:53;21.10;96.60
31967;DHT22;18496;52.042;6.812;2022-09-09T10:41:15;21.10;95.40
31967;DHT22;18496;52.042;6.812;2022-09-09T10:45:36;21.20;95.40
31967;DHT22;18496;52.042;6.812;2022-09-09T10:48:36;21.30;94.80
31967;DHT22;18496;52.042;6.812;2022-09-09T10:55:37;21.30;94.80
31967;DHT22;18496;52.042;6.812;2022-09-09T10:57:48;21.20;94.00
31967;DHT22;18496;52.042;6.812;2022-09-09T10:59:55;21.20;94.10
31967;DHT22;18496;52.042;6.812;2022-09-09T11:02:06;21.20;94.30
31967;DHT22;18496;52.042;6.812;2022-09-09T11:04:40;21.10;94.50
31967;DHT22;18496;52.042;6.812;2022-09-09T11:06:49;21.20;94.60
31967;DHT22;18496;52.042;6.812;2022-09-09T11:08:57;21.20;94.60
31967;DHT22;18496;52.042;6.812;2022-09-09T11:11:39;21.20;94.30
31967;DHT22;18496;52.042;6.812;2022-09-09T11:18:22;21.20;94.20
31967;DHT22;18496;52.042;6.812;2022-09-09T11:20:26;21.20;94.40
31967;DHT22;18496;52.042;6.812;2022-09-09T11:22:37;21.20;94.40
31967;DHT22;18496;52.042;6.812;2022-09-09T11:24:50;21.20;94.10
31967;DHT22;18496;52.042;6.812;2022-09-09T11:27:07;21.30;94.10
31967;DHT22;18496;52.042;6.812;2022-09-09T11:41:43;21.30;93.20
31967;DHT22;18496;52.042;6.812;2022-09-09T11:43:51;21.20;93.50
31967;DHT22;18496;52.042;6.812;2022-09-09T11:46:01;21.20;93.40
31967;DHT22;18496;52.042;6.812;2022-09-09T11:48:23;21.10;93.50
31967;DHT22;18496;52.042;6.812;2022-09-09T11:52:40;21.20;93.80
31967;DHT22;18496;52.042;6.812;2022-09-09T11:54:48;21.20;93.80
31967;DHT22;18496;52.042;6.812;2022-09-09T11:56:52;21.20;94.00
31967;DHT22;18496;52.042;6.812;2022-09-09T11:59:19;21.20;94.30
31967;DHT22;18496;52.042;6.812;2022-09-09T12:01:41;21.30;94.20
31967;DHT22;18496;52.042;6.812;2022-09-09T12:03:52;21.30;94.20
31967;DHT22;18496;52.042;6.812;2022-09-09T12:05:59;21.40;93.70
31967;DHT22;18496;52.042;6.812;2022-09-09T12:08:04;21.40;93.40
31967;DHT22;18496;52.042;6.812;2022-09-09T12:10:28;21.30;93.30
31967;DHT22;18496;52.042;6.812;2022-09-09T12:12:35;21.30;93.60
31967;DHT22;18496;52.042;6.812;2022-09-09T12:16:46;21.30;93.30
31967;DHT22;18496;52.042;6.812;2022-09-09T12:18:50;21.30;93.30
31967;DHT22;18496;52.042;6.812;2022-09-09T12:21:06;21.30;93.50
31967;DHT22;18496;52.042;6.812;2022-09-09T12:30:11;21.20;93.90
31967;DHT22;18496;52.042;6.812;2022-09-09T12:32:20;21.30;94.10
31967;DHT22;18496;52.042;6.812;2022-09-09T12:34:52;21.40;94.00
31967;DHT22;18496;52.042;6.812;2022-09-09T12:39:34;21.50;93.60
31967;DHT22;18496;52.042;6.812;2022-09-09T12:41:39;21.40;93.40
31967;DHT22;18496;52.042;6.812;2022-09-09T12:43:42;21.40;94.20
31967;DHT22;18496;52.042;6.812;2022-09-09T12:45:46;21.20;96.00
31967;DHT22;18496;52.042;6.812;2022-09-09T12:48:10;21.10;96.30
31967;DHT22;18496;52.042;6.812;2022-09-09T12:50:22;20.80;97.00
31967;DHT22;18496;52.042;6.812;2022-09-09T12:52:32;20.70;97.40
31967;DHT22;18496;52.042;6.812;2022-09-09T12:54:38;20.60;97.50
31967;DHT22;18496;52.042;6.812;2022-09-09T12:56:48;20.50;98.60
31967;DHT22;18496;52.042;6.812;2022-09-09T12:58:53;20.40;99.20
31967;DHT22;18496;52.042;6.812;2022-09-09T13:00:59;20.40;98.80
31967;DHT22;18496;52.042;6.812;2022-09-09T13:03:16;20.40;98.90
31967;DHT22;18496;52.042;6.812;2022-09-09T13:05:27;20.40;99.20
31967;DHT22;18496;52.042;6.812;2022-09-09T13:07:31;20.30;99.40
31967;DHT22;18496;52.042;6.812;2022-09-09T13:09:34;20.20;99.80
31967;DHT22;18496;52.042;6.812;2022-09-09T13:11:41;20.10;99.90
31967;DHT22;18496;52.042;6.812;2022-09-09T13:13:52;20.10;99.90
31967;DHT22;18496;52.042;6.812;2022-09-09T13:15:58;20.10;99.90
31967;DHT22;18496;52.042;6.812;2022-09-09T13:18:06;20.20;99.90
31967;DHT22;18496;52.042;6.812;2022-09-09T13:20:18;20.30;99.90
31967;DHT22;18496;52.042;6.812;2022-09-09T13:24:36;20.40;99.90
31967;DHT22;18496;52.042;6.812;2022-09-09T13:26:39;20.40;99.90
31967;DHT22;18496;52.042;6.812;2022-09-09T13:28:43;20.40;99.90
31967;DHT22;18496;52.042;6.812;2022-09-09T13:30:57;20.40;99.90
31967;DHT22;18496;52.042;6.812;2022-09-09T13:35:31;20.20;99.90
31967;DHT22;18496;52.042;6.812;2022-09-09T13:37:37;20.20;99.90
31967;DHT22;18496;52.042;6.812;2022-09-09T13:39:51;20.20;99.90
31967;DHT22;18496;52.042;6.812;2022-09-09T13:41:58;20.30;99.90
31967;DHT22;18496;52.042;6.812;2022-09-09T13:44:03;20.20;99.90
31967;DHT22;18496;52.042;6.812;2022-09-09T13:46:35;20.20;99.90
31967;DHT22;18496;52.042;6.812;2022-09-09T13:48:39;20.30;99.90
31967;DHT22;18496;52.042;6.812;2022-09-09T13:50:54;20.50;99.90
31967;DHT22;18496;52.042;6.812;2022-09-09T13:52:59;20.60;99.90
31967;DHT22;18496;52.042;6.812;2022-09-09T13:55:02;20.60;99.90
31967;DHT22;18496;52.042;6.812;2022-09-09T13:57:18;20.60;99.90
31967;DHT22;18496;52.042;6.812;2022-09-09T13:59:22;20.60;99.90
31967;DHT22;18496;52.042;6.812;2022-09-09T14:01:27;20.60;99.90
31967;DHT22;18496;52.042;6.812;2022-09-09T14:03:31;20.70;99.90
31967;DHT22;18496;52.042;6.812;2022-09-09T14:05:35;20.70;99.90
31967;DHT22;18496;52.042;6.812;2022-09-09T14:07:39;20.90;99.90
31967;DHT22;18496;52.042;6.812;2022-09-09T14:09:44;21.00;99.90
31967;DHT22;18496;52.042;6.812;2022-09-09T14:11:48;21.10;99.90
31967;DHT22;18496;52.042;6.812;2022-09-09T14:13:52;21.10;99.90
31967;DHT22;18496;52.042;6.812;2022-09-09T14:15:56;21.20;99.90
31967;DHT22;18496;52.042;6.812;2022-09-09T14:17:59;21.40;99.90
31967;DHT22;18496;52.042;6.812;2022-09-09T14:20:04;21.50;99.90
31967;DHT22;18496;52.042;6.812;2022-09-09T14:22:12;21.50;99.90
31967;DHT22;18496;52.042;6.812;2022-09-09T14:24:16;21.60;99.90
31967;DHT22;18496;52.042;6.812;2022-09-09T14:26:20;21.60;99.90
31967;DHT22;18496;52.042;6.812;2022-09-09T14:28:24;21.60;99.90
31967;DHT22;18496;52.042;6.812;2022-09-09T14:30:28;21.60;99.90
31967;DHT22;18496;52.042;6.812;2022-09-09T14:32:32;21.70;99.60
31967;DHT22;18496;52.042;6.812;2022-09-09T14:34:36;21.60;99.90
31967;DHT22;18496;52.042;6.812;2022-09-09T14:36:40;21.60;99.70
31967;DHT22;18496;52.042;6.812;2022-09-09T14:38:44;21.60;99.40
31967;DHT22;18496;52.042;6.812;2022-09-09T14:40:48;21.60;99.10
31967;DHT22;18496;52.042;6.812;2022-09-09T14:42:52;21.50;99.10
31967;DHT22;18496;52.042;6.812;2022-09-09T14:44:56;21.60;99.20
31967;DHT22;18496;52.042;6.812;2022-09-09T14:47:00;21.60;99.00
31967;DHT22;18496;52.042;6.812;2022-09-09T14:49:03;21.60;99.00
31967;DHT22;18496;52.042;6.812;2022-09-09T14:51:13;21.60;99.10
31967;DHT22;18496;52.042;6.812;2022-09-09T14:53:18;21.60;98.90
31967;DHT22;18496;52.042;6.812;2022-09-09T14:55:22;21.60;98.80
31967;DHT22;18496;52.042;6.812;2022-09-09T14:57:25;21.70;98.60
31967;DHT22;18496;52.042;6.812;2022-09-09T14:59:29;21.80;98.70
31967;DHT22;18496;52.042;6.812;2022-09-09T15:01:33;21.90;98.60
31967;DHT22;18496;52.042;6.812;2022-09-09T15:03:38;21.90;98.40
31967;DHT22;18496;52.042;6.812;2022-09-09T15:05:42;22.00;98.10
31967;DHT22;18496;52.042;6.812;2022-09-09T15:07:46;22.00;98.00
31967;DHT22;18496;52.042;6.812;2022-09-09T15:09:51;22.00;98.20
31967;DHT22;18496;52.042;6.812;2022-09-09T15:11:56;22.00;98.10
31967;DHT22;18496;52.042;6.812;2022-09-09T15:14:00;22.10;97.60